Time;durP1;ratioP1;P1;durP2;ratioP2;P2;SDS_P1;SDS_P2;PMS_P1;PMS_P2;Temp;Humidity;BMP_temperature;BMP_pressure;BME280_temperature;BME280_humidity;BME280_pressure;Samples;Min_cycle;Max_cycle;Signal;HPM_P1;HPM_P2
2022/05/10 00:00:05;;;;;;;;;;;;;;;;;;4437924;32;20026;-67
2022/05/10 00:02:31;;;;;;;20.65;14.52;;;;;;;;;;4435956;32;19963;-67
2022/05/10 00:04:56;;;;;;;29.40;16.37;;;;;;;;;;4436648;32;20078;-67
2022/05/10 00:07:23;;;;;;;21.05;15.02;;;;;;;;;;4437656;32;20327;-67
2022/05/10 00:09:48;;;;;;;20.80;15.25;;;;;;;;;;4434817;32;20121;-68
2022/05/10 00:12:14;;;;;;;26.73;15.25;;;;;;;;;;4435521;32;20049;-67
2022/05/10 00:14:39;;;;;;;24.42;16.12;;;;;;;;;;4436234;32;20029;-67
2022/05/10 00:17:04;;;;;;;;;;;;;;;;;;4436347;32;20057;-68
2022/05/10 00:19:30;;;;;;;24.40;14.65;;;;;;;;;;4436230;32;19949;-67
2022/05/10 00:21:55;;;;;;;22.13;15.05;;;;;;;;;;4436233;32;20140;-67
2022/05/10 00:24:21;;;;;;;21.48;15.32;;;;;;;;;;4436891;32;20021;-67
2022/05/10 00:26:46;;;;;;;23.50;17.20;;;;;;;;;;4437476;32;20037;-67
2022/05/10 00:29:11;;;;;;;;;;;;;;;;;;4437816;32;20120;-67
2022/05/10 00:31:36;;;;;;;22.02;16.37;;;;;;;;;;4436160;32;19948;-67
2022/05/10 00:34:03;;;;;;;24.48;16.27;;;;;;;;;;4435314;32;20060;-67
2022/05/10 00:36:28;;;;;;;23.67;16.30;;;;;;;;;;4436860;32;20435;-67
2022/05/10 00:38:53;;;;;;;25.88;15.25;;;;;;;;;;4442675;26;20046;-71
2022/05/10 00:41:18;;;;;;;;;;;;;;;;;;4416931;32;20297;-70
2022/05/10 00:43:46;;;;;;;26.08;16.23;;;;;;;;;;4405493;32;19946;-70
2022/05/10 00:46:11;;;;;;;23.15;15.32;;;;;;;;;;4388102;32;20095;-71
2022/05/10 00:48:45;;;;;;;27.37;16.45;;;;;;;;;;4408869;32;20033;-70
2022/05/10 00:51:23;;;;;;;20.52;14.45;;;;;;;;;;4410484;32;20042;-71
2022/05/10 00:54:26;;;;;;;24.20;15.98;;;;;;;;;;4417227;32;20388;-69
2022/05/10 00:57:10;;;;;;;19.27;15.40;;;;;;;;;;4340585;33;20421;-70
2022/05/10 01:00:02;;;;;;;25.80;15.98;;;;;;;;;;4340077;33;20470;-70
2022/05/10 01:02:30;;;;;;;25.65;15.73;;;;;;;;;;4385299;32;20451;-69
2022/05/10 01:04:58;;;;;;;20.10;15.45;;;;;;;;;;4405034;32;20283;-70
2022/05/10 01:07:27;;;;;;;23.15;14.48;;;;;;;;;;4418146;32;20026;-70
2022/05/10 01:09:54;;;;;;;24.20;15.88;;;;;;;;;;4404652;32;20314;-70
2022/05/10 01:12:33;;;;;;;27.95;15.23;;;;;;;;;;4404453;32;20077;-69
2022/05/10 01:15:03;;;;;;;30.73;15.95;;;;;;;;;;4402162;32;20030;-69
2022/05/10 01:17:28;;;;;;;26.62;16.17;;;;;;;;;;4403552;32;20072;-69
2022/05/10 01:19:53;;;;;;;30.35;17.80;;;;;;;;;;4401901;32;20031;-69
2022/05/10 01:22:37;;;;;;;23.38;16.27;;;;;;;;;;4409067;32;20029;-69
2022/05/10 01:25:20;;;;;;;33.53;17.42;;;;;;;;;;4398081;32;20113;-69
2022/05/10 01:27:45;;;;;;;27.13;16.65;;;;;;;;;;4417073;32;20038;-69
2022/05/10 01:30:15;;;;;;;30.33;17.73;;;;;;;;;;4416385;32;20048;-71
2022/05/10 01:35:30;;;;;;;26.23;17.00;;;;;;;;;;4418490;32;20048;-69
2022/05/10 01:37:59;;;;;;;27.65;17.77;;;;;;;;;;4421694;32;20051;-69
2022/05/10 01:40:38;;;;;;;27.00;17.00;;;;;;;;;;4422244;32;20071;-70
2022/05/10 01:43:11;;;;;;;28.87;17.75;;;;;;;;;;4421435;32;20407;-70
2022/05/10 01:45:47;;;;;;;28.83;17.85;;;;;;;;;;4411344;32;20061;-70
2022/05/10 01:48:15;;;;;;;29.92;17.77;;;;;;;;;;4405240;32;20051;-70
2022/05/10 01:50:46;;;;;;;25.10;17.50;;;;;;;;;;4406406;32;20029;-70
2022/05/10 01:53:28;;;;;;;26.67;17.98;;;;;;;;;;4417783;32;20335;-69
2022/05/10 01:55:58;;;;;;;28.27;17.40;;;;;;;;;;4402079;32;20047;-69
2022/05/10 01:58:31;;;;;;;28.17;17.90;;;;;;;;;;4405996;32;20049;-69
2022/05/10 02:00:58;;;;;;;23.73;17.75;;;;;;;;;;4411462;32;20359;-69
2022/05/10 02:03:42;;;;;;;27.87;17.35;;;;;;;;;;4399489;32;20034;-69
2022/05/10 02:06:11;;;;;;;29.10;17.15;;;;;;;;;;4392851;32;20048;-69
2022/05/10 02:08:45;;;;;;;25.75;16.65;;;;;;;;;;4406236;32;20022;-69
2022/05/10 02:11:12;;;;;;;23.50;16.27;;;;;;;;;;4393605;32;20363;-69
2022/05/10 02:13:39;;;;;;;24.10;16.52;;;;;;;;;;4392186;32;20022;-69
2022/05/10 02:16:10;;;;;;;21.30;15.27;;;;;;;;;;4407627;32;20117;-68
2022/05/10 02:18:41;;;;;;;22.65;15.65;;;;;;;;;;4394097;32;20053;-69
2022/05/10 02:21:12;;;;;;;27.15;17.85;;;;;;;;;;4405968;32;20143;-69
2022/05/10 02:23:41;;;;;;;25.88;16.80;;;;;;;;;;4420010;32;20073;-69
2022/05/10 02:26:08;;;;;;;26.20;17.33;;;;;;;;;;4422492;32;20061;-69
2022/05/10 02:28:45;;;;;;;28.33;16.87;;;;;;;;;;4422177;32;20049;-69
2022/05/10 02:31:14;;;;;;;26.23;16.55;;;;;;;;;;4408109;32;20388;-69
2022/05/10 02:33:40;;;;;;;29.37;14.68;;;;;;;;;;4419449;32;20422;-69
2022/05/10 02:36:05;;;;;;;22.52;14.75;;;;;;;;;;4419983;32;20204;-69
2022/05/10 02:38:32;;;;;;;21.77;14.35;;;;;;;;;;4412409;32;20050;-69
2022/05/10 02:40:59;;;;;;;20.90;14.10;;;;;;;;;;4406541;32;20034;-70
2022/05/10 02:43:26;;;;;;;26.73;14.38;;;;;;;;;;4406628;32;20149;-69
2022/05/10 02:45:54;;;;;;;24.87;15.00;;;;;;;;;;4405004;32;20364;-69
2022/05/10 02:48:22;;;;;;;22.60;14.65;;;;;;;;;;4409188;32;20089;-70
2022/05/10 02:50:47;;;;;;;20.75;12.98;;;;;;;;;;4405970;32;20056;-69
2022/05/10 02:53:12;;;;;;;26.60;15.30;;;;;;;;;;4413773;32;20042;-69
2022/05/10 02:55:43;;;;;;;27.07;14.43;;;;;;;;;;4405871;32;20451;-69
2022/05/10 02:58:11;;;;;;;22.67;14.65;;;;;;;;;;4406310;32;20153;-69
2022/05/10 03:00:36;;;;;;;32.20;15.25;;;;;;;;;;4405649;32;20069;-70
2022/05/10 03:03:06;;;;;;;23.92;14.82;;;;;;;;;;4406909;32;20207;-69
2022/05/10 03:05:31;;;;;;;27.85;15.80;;;;;;;;;;4418999;32;20148;-69
2022/05/10 03:07:56;;;;;;;26.13;15.77;;;;;;;;;;4413541;32;20026;-69
2022/05/10 03:10:22;;;;;;;;;;;;;;;;;;4405497;32;20118;-69
2022/05/10 03:12:47;;;;;;;22.23;15.48;;;;;;;;;;4403831;32;19975;-69
2022/05/10 03:15:12;;;;;;;23.17;14.87;;;;;;;;;;4404954;32;20054;-69
2022/05/10 03:17:38;;;;;;;23.27;15.45;;;;;;;;;;4404201;32;20018;-69
2022/05/10 03:20:03;;;;;;;23.90;16.92;;;;;;;;;;4397480;32;20060;-69
2022/05/10 03:22:28;;;;;;;28.23;17.83;;;;;;;;;;4417403;32;20056;-69
2022/05/10 03:24:53;;;;;;;27.40;16.75;;;;;;;;;;4407046;32;20385;-69
2022/05/10 03:27:19;;;;;;;26.67;16.60;;;;;;;;;;4420978;32;20055;-69
2022/05/10 03:29:44;;;;;;;;;;;;;;;;;;4420850;32;20044;-70
2022/05/10 03:32:10;;;;;;;25.05;16.30;;;;;;;;;;4420122;32;19961;-69
2022/05/10 03:37:19;;;;;;;26.08;15.68;;;;;;;;;;4417253;32;20411;-69
2022/05/10 03:39:44;;;;;;;26.30;17.35;;;;;;;;;;4389757;32;20409;-69
2022/05/10 03:42:09;;;;;;;28.23;16.57;;;;;;;;;;4392629;32;20098;-70
2022/05/10 03:44:37;;;;;;;;;;;;;;;;;;4390940;32;20122;-69
2022/05/10 03:47:03;;;;;;;28.00;16.50;;;;;;;;;;4389902;32;19945;-69
2022/05/10 03:49:28;;;;;;;30.90;17.05;;;;;;;;;;4395684;32;20336;-69
2022/05/10 03:51:54;;;;;;;27.25;17.20;;;;;;;;;;4407703;32;20019;-69
2022/05/10 03:54:20;;;;;;;26.20;16.85;;;;;;;;;;4405796;32;20072;-69
2022/05/10 03:56:45;;;;;;;24.63;16.83;;;;;;;;;;4418958;32;20041;-70
2022/05/10 03:59:10;;;;;;;;;;;;;;;;;;4419254;32;20396;-69
2022/05/10 04:01:36;;;;;;;27.73;17.65;;;;;;;;;;4420306;32;20015;-69
2022/05/10 04:04:01;;;;;;;26.42;16.20;;;;;;;;;;4396926;32;20031;-69
2022/05/10 04:06:26;;;;;;;29.58;16.83;;;;;;;;;;4404712;32;20113;-69
2022/05/10 04:08:52;;;;;;;33.05;16.90;;;;;;;;;;4418233;32;20388;-70
2022/05/10 04:11:17;;;;;;;;;;;;;;;;;;4420978;32;20419;-69
2022/05/10 04:13:42;;;;;;;38.30;18.60;;;;;;;;;;4420067;32;19962;-69
2022/05/10 04:16:08;;;;;;;25.40;16.27;;;;;;;;;;4419029;32;20038;-69
2022/05/10 04:18:33;;;;;;;;;;;;;;;;;;4422540;32;20049;-69
2022/05/10 04:20:58;;;;;;;34.30;17.92;;;;;;;;;;4419404;32;20034;-70
2022/05/10 04:23:23;;;;;;;26.67;16.67;;;;;;;;;;4416661;32;20389;-69
2022/05/10 04:25:49;;;;;;;33.63;17.90;;;;;;;;;;4419103;32;20415;-69
2022/05/10 04:28:14;;;;;;;;;;;;;;;;;;4420147;32;20117;-68
2022/05/10 04:30:39;;;;;;;27.17;16.52;;;;;;;;;;4398152;32;19963;-70
2022/05/10 04:33:04;;;;;;;27.67;16.70;;;;;;;;;;4401277;32;20053;-70
2022/05/10 04:35:29;;;;;;;27.13;17.62;;;;;;;;;;4402871;32;20139;-70
2022/05/10 04:37:55;;;;;;;29.63;16.70;;;;;;;;;;4404731;32;20049;-69
2022/05/10 04:43:05;;;;;;;28.35;17.42;;;;;;;;;;4412616;32;20223;-70
2022/05/10 04:45:30;;;;;;;29.70;18.40;;;;;;;;;;4419680;32;20066;-69
2022/05/10 04:47:56;;;;;;;32.10;17.55;;;;;;;;;;4418721;32;20065;-70
2022/05/10 04:50:21;;;;;;;30.48;16.87;;;;;;;;;;4420355;32;20021;-69
2022/05/10 04:52:46;;;;;;;;;;;;;;;;;;4415985;32;20084;-70
2022/05/10 04:55:11;;;;;;;26.35;17.05;;;;;;;;;;4403927;32;19937;-70
2022/05/10 04:57:36;;;;;;;;;;;;;;;;;;4404309;32;20142;-69
2022/05/10 05:00:02;;;;;;;25.70;17.42;;;;;;;;;;4404136;32;19937;-69
2022/05/10 05:02:28;;;;;;;28.10;16.70;;;;;;;;;;4405081;32;20042;-70
2022/05/10 05:04:53;;;;;;;30.83;17.08;;;;;;;;;;4390051;32;20030;-70
2022/05/10 05:07:18;;;;;;;33.50;18.10;;;;;;;;;;4405242;32;20022;-69
2022/05/10 05:09:43;;;;;;;27.63;16.93;;;;;;;;;;4391645;32;20057;-70
2022/05/10 05:12:09;;;;;;;28.30;18.05;;;;;;;;;;4388694;32;20165;-68
2022/05/10 05:14:35;;;;;;;27.92;17.92;;;;;;;;;;4402648;32;20066;-69
2022/05/10 05:17:00;;;;;;;27.25;16.40;;;;;;;;;;4403338;32;20180;-68
2022/05/10 05:19:25;;;;;;;31.20;17.83;;;;;;;;;;4403917;32;20120;-69
2022/05/10 05:21:50;;;;;;;26.85;17.05;;;;;;;;;;4402754;32;20174;-71
2022/05/10 05:24:16;;;;;;;;;;;;;;;;;;4390479;32;20030;-69
2022/05/10 05:26:41;;;;;;;28.73;16.92;;;;;;;;;;4404455;32;19972;-70
2022/05/10 05:29:06;;;;;;;25.00;16.87;;;;;;;;;;4414987;32;20084;-69
2022/05/10 05:31:32;;;;;;;26.70;16.20;;;;;;;;;;4390132;32;20539;-69
2022/05/10 05:33:57;;;;;;;25.12;17.02;;;;;;;;;;4403430;32;20094;-70
2022/05/10 05:36:22;;;;;;;34.58;17.70;;;;;;;;;;4403609;32;20459;-69
2022/05/10 05:38:50;;;;;;;25.02;16.17;;;;;;;;;;4403205;32;20327;-69
2022/05/10 05:41:15;;;;;;;29.60;16.25;;;;;;;;;;4405251;32;20037;-69
2022/05/10 05:43:40;;;;;;;28.35;16.67;;;;;;;;;;4415414;32;20135;-69
2022/05/10 05:46:06;;;;;;;30.08;17.20;;;;;;;;;;4395086;32;20554;-69
2022/05/10 05:48:31;;;;;;;22.48;15.38;;;;;;;;;;4402932;32;20042;-70
2022/05/10 05:50:56;;;;;;;32.33;17.63;;;;;;;;;;4403341;32;20030;-69
2022/05/10 05:53:21;;;;;;;29.25;16.85;;;;;;;;;;4402564;32;20157;-69
2022/05/10 05:55:48;;;;;;;28.60;17.23;;;;;;;;;;4388778;32;20053;-69
2022/05/10 05:58:13;;;;;;;27.17;15.68;;;;;;;;;;4405050;32;20364;-70
2022/05/10 06:00:38;;;;;;;30.92;16.20;;;;;;;;;;4402854;32;20084;-68
2022/05/10 06:03:04;;;;;;;28.05;17.42;;;;;;;;;;4390031;32;20392;-70
2022/05/10 06:05:29;;;;;;;31.45;16.50;;;;;;;;;;4403919;32;20081;-70
2022/05/10 06:07:54;;;;;;;32.33;15.85;;;;;;;;;;4410174;32;20096;-70
2022/05/10 06:10:20;;;;;;;34.15;17.05;;;;;;;;;;4415480;32;20161;-68
2022/05/10 06:12:45;;;;;;;29.08;15.20;;;;;;;;;;4417391;32;20540;-70
2022/05/10 06:15:12;;;;;;;23.58;15.20;;;;;;;;;;4416255;32;20030;-70
2022/05/10 06:17:39;;;;;;;26.48;15.40;;;;;;;;;;4404553;32;20087;-70
2022/05/10 06:20:06;;;;;;;31.35;17.12;;;;;;;;;;4389662;32;20035;-69
2022/05/10 06:22:32;;;;;;;25.48;14.90;;;;;;;;;;4387413;32;20053;-69
2022/05/10 06:24:57;;;;;;;33.15;15.60;;;;;;;;;;4390896;32;20027;-69
2022/05/10 06:27:22;;;;;;;23.62;14.75;;;;;;;;;;4407239;32;20030;-69
2022/05/10 06:29:49;;;;;;;28.30;16.62;;;;;;;;;;4406490;32;20126;-70
2022/05/10 06:32:24;;;;;;;26.80;15.20;;;;;;;;;;4399539;32;20201;-70
2022/05/10 06:34:50;;;;;;;27.27;15.43;;;;;;;;;;4402288;32;20068;-69
2022/05/10 06:40:03;;;;;;;25.48;15.85;;;;;;;;;;4407245;32;20141;-69
2022/05/10 06:42:28;;;;;;;26.12;14.60;;;;;;;;;;4409736;32;20018;-70
2022/05/10 06:44:54;;;;;;;24.58;14.25;;;;;;;;;;4422768;32;20095;-69
2022/05/10 06:47:19;;;;;;;26.12;14.70;;;;;;;;;;4421543;32;20045;-69
2022/05/10 06:49:45;;;;;;;25.92;14.13;;;;;;;;;;4419471;32;20034;-69
2022/05/10 06:52:10;;;;;;;26.87;14.43;;;;;;;;;;4407864;32;20053;-70
2022/05/10 06:54:35;;;;;;;27.98;13.93;;;;;;;;;;4406115;32;20099;-69
2022/05/10 06:57:00;;;;;;;25.90;15.18;;;;;;;;;;4408532;32;20407;-70
2022/05/10 06:59:25;;;;;;;25.42;13.77;;;;;;;;;;4408153;32;20353;-70
2022/05/10 07:01:51;;;;;;;23.35;14.02;;;;;;;;;;4391852;32;20146;-69
2022/05/10 07:04:16;;;;;;;25.60;14.25;;;;;;;;;;4406845;32;20113;-69
2022/05/10 07:06:41;;;;;;;23.70;12.75;;;;;;;;;;4407666;32;20169;-69
2022/05/10 07:09:06;;;;;;;21.60;13.02;;;;;;;;;;4393125;32;20150;-70
2022/05/10 07:11:31;;;;;;;24.73;13.70;;;;;;;;;;4407587;32;20022;-68
2022/05/10 07:13:56;;;;;;;19.90;12.43;;;;;;;;;;4407112;32;20157;-69
2022/05/10 07:16:21;;;;;;;26.15;14.82;;;;;;;;;;4416025;32;20584;-69
2022/05/10 07:18:48;;;;;;;21.08;13.38;;;;;;;;;;4407362;32;20058;-69
2022/05/10 07:21:13;;;;;;;25.25;13.00;;;;;;;;;;4403135;32;20056;-69
2022/05/10 07:23:38;;;;;;;20.55;14.50;;;;;;;;;;4404493;32;20086;-69
2022/05/10 07:26:04;;;;;;;22.83;12.85;;;;;;;;;;4405746;32;20361;-69
2022/05/10 07:28:29;;;;;;;19.67;12.90;;;;;;;;;;4395569;32;20523;-70
2022/05/10 07:30:55;;;;;;;20.30;12.27;;;;;;;;;;4404651;32;20022;-69
2022/05/10 07:33:21;;;;;;;18.02;12.15;;;;;;;;;;4405557;32;20089;-71
2022/05/10 07:38:30;;;;;;;22.05;11.48;;;;;;;;;;4393790;32;20148;-69
2022/05/10 07:40:55;;;;;;;16.35;11.20;;;;;;;;;;4405082;32;20030;-69
2022/05/10 07:43:20;;;;;;;19.43;11.07;;;;;;;;;;4404319;32;20104;-70
2022/05/10 07:45:47;;;;;;;23.12;11.68;;;;;;;;;;4403441;32;20169;-68
2022/05/10 07:48:12;;;;;;;18.35;11.75;;;;;;;;;;4391839;32;20117;-69
2022/05/10 07:50:37;;;;;;;18.55;11.10;;;;;;;;;;4404993;32;20018;-69
2022/05/10 07:53:06;;;;;;;21.95;11.23;;;;;;;;;;4405391;32;20060;-70
2022/05/10 07:55:34;;;;;;;18.83;10.45;;;;;;;;;;4404254;32;20389;-69
2022/05/10 07:57:59;;;;;;;17.37;9.43;;;;;;;;;;4390787;32;20019;-69
2022/05/10 08:00:24;;;;;;;16.55;9.85;;;;;;;;;;4404259;32;20110;-69
2022/05/10 08:02:49;;;;;;;13.45;10.15;;;;;;;;;;4405671;32;20026;-69
2022/05/10 08:05:19;;;;;;;15.20;9.27;;;;;;;;;;4404364;32;20251;-69
2022/05/10 08:07:44;;;;;;;15.90;8.95;;;;;;;;;;4403982;32;20122;-69
2022/05/10 08:10:10;;;;;;;12.95;9.05;;;;;;;;;;4405502;32;20399;-70
2022/05/10 08:12:35;;;;;;;25.92;10.32;;;;;;;;;;4405030;32;20059;-69
2022/05/10 08:15:01;;;;;;;15.80;9.70;;;;;;;;;;4406666;32;20026;-71
2022/05/10 08:17:26;;;;;;;12.73;9.13;;;;;;;;;;4418493;32;20057;-69
2022/05/10 08:19:51;;;;;;;11.73;9.40;;;;;;;;;;4418171;32;20025;-68
2022/05/10 08:22:17;;;;;;;13.32;8.85;;;;;;;;;;4419621;32;20193;-69
2022/05/10 08:24:42;;;;;;;13.13;7.60;;;;;;;;;;4405278;32;20368;-69
2022/05/10 08:27:07;;;;;;;10.40;7.82;;;;;;;;;;4421280;32;20022;-69
2022/05/10 08:29:32;;;;;;;10.75;6.97;;;;;;;;;;4420644;32;20091;-69
2022/05/10 08:31:58;;;;;;;14.40;8.40;;;;;;;;;;4422223;32;20052;-69
2022/05/10 08:34:24;;;;;;;15.35;8.30;;;;;;;;;;4422748;32;20527;-69
2022/05/10 08:36:49;;;;;;;11.05;6.95;;;;;;;;;;4420218;32;20097;-70
2022/05/10 08:39:14;;;;;;;10.93;7.15;;;;;;;;;;4420897;32;20034;-69
2022/05/10 08:41:48;;;;;;;15.57;7.50;;;;;;;;;;4420873;32;20075;-69
2022/05/10 08:44:14;;;;;;;13.55;6.97;;;;;;;;;;4405967;32;20411;-70
2022/05/10 08:46:41;;;;;;;18.67;6.80;;;;;;;;;;4407929;32;20101;-70
2022/05/10 08:49:17;;;;;;;16.75;6.62;;;;;;;;;;4421554;32;20125;-70
2022/05/10 08:51:42;;;;;;;10.20;6.28;;;;;;;;;;4421869;32;20026;-70
2022/05/10 08:54:07;;;;;;;12.20;5.80;;;;;;;;;;4406294;32;20068;-68
2022/05/10 08:56:40;;;;;;;11.67;5.90;;;;;;;;;;4401182;32;20114;-70
2022/05/10 08:59:11;;;;;;;13.45;5.75;;;;;;;;;;4390910;32;20525;-69
2022/05/10 09:01:43;;;;;;;13.20;5.68;;;;;;;;;;4391338;32;20447;-70
2022/05/10 09:04:43;;;;;;;11.12;4.97;;;;;;;;;;4391205;32;20072;-70
2022/05/10 09:07:14;;;;;;;9.07;5.65;;;;;;;;;;4355907;32;20122;-69
2022/05/10 09:09:51;;;;;;;10.07;5.18;;;;;;;;;;4409581;32;20383;-69
2022/05/10 09:12:20;;;;;;;14.48;5.57;;;;;;;;;;4421359;32;20096;-69
2022/05/10 09:14:52;;;;;;;13.62;6.05;;;;;;;;;;4421353;32;20072;-70
2022/05/10 09:17:18;;;;;;;18.58;7.47;;;;;;;;;;4407840;32;20037;-69
2022/05/10 09:19:44;;;;;;;13.10;7.35;;;;;;;;;;4420194;32;20071;-69
2022/05/10 09:22:32;;;;;;;17.52;7.30;;;;;;;;;;4416633;32;20030;-70
2022/05/10 09:24:57;;;;;;;19.67;7.95;;;;;;;;;;4396539;32;20026;-69
2022/05/10 09:27:31;;;;;;;13.13;6.22;;;;;;;;;;4404569;32;20375;-68
2022/05/10 09:29:56;;;;;;;10.38;5.78;;;;;;;;;;4405648;32;20355;-68
2022/05/10 09:35:10;;;;;;;10.18;5.80;;;;;;;;;;4405486;32;20175;-69
2022/05/10 09:37:45;;;;;;;9.00;5.78;;;;;;;;;;4419377;32;20464;-69
2022/05/10 09:40:27;;;;;;;12.60;5.60;;;;;;;;;;4419782;32;20419;-69
2022/05/10 09:42:53;;;;;;;10.60;5.53;;;;;;;;;;4420557;32;20034;-69
2022/05/10 09:45:26;;;;;;;11.63;5.82;;;;;;;;;;4420098;32;20056;-69
2022/05/10 09:47:56;;;;;;;11.57;6.07;;;;;;;;;;4420499;32;20026;-68
2022/05/10 09:50:25;;;;;;;12.88;6.47;;;;;;;;;;4420487;32;20180;-69
2022/05/10 09:53:05;;;;;;;14.30;5.62;;;;;;;;;;4418901;32;20105;-70
2022/05/10 09:55:31;;;;;;;8.40;5.50;;;;;;;;;;4421362;32;20026;-69
2022/05/10 09:57:57;;;;;;;9.52;4.72;;;;;;;;;;4420686;32;20087;-69
2022/05/10 10:00:40;;;;;;;9.73;5.25;;;;;;;;;;4393719;32;20054;-68
2022/05/10 10:03:05;;;;;;;9.35;5.65;;;;;;;;;;4406745;32;20042;-68
2022/05/10 10:05:34;;;;;;;8.48;4.55;;;;;;;;;;4407539;32;20455;-68
2022/05/10 10:07:59;;;;;;;12.52;5.20;;;;;;;;;;4407930;32;20411;-68
2022/05/10 10:10:28;;;;;;;13.25;5.80;;;;;;;;;;4408787;32;20109;-69
2022/05/10 10:12:53;;;;;;;13.50;4.50;;;;;;;;;;4421416;32;20295;-69
2022/05/10 10:15:24;;;;;;;17.40;5.95;;;;;;;;;;4422926;32;20018;-69
2022/05/10 10:17:52;;;;;;;9.45;5.75;;;;;;;;;;4422938;32;20148;-69
2022/05/10 10:20:28;;;;;;;11.18;5.20;;;;;;;;;;4422438;32;20064;-70
2022/05/10 10:22:54;;;;;;;7.32;4.95;;;;;;;;;;4412097;32;20101;-68
2022/05/10 10:25:22;;;;;;;10.43;5.25;;;;;;;;;;4407277;32;20026;-70
2022/05/10 10:27:51;;;;;;;9.68;5.57;;;;;;;;;;4406143;32;20069;-68
2022/05/10 10:30:21;;;;;;;11.45;5.60;;;;;;;;;;4408052;32;20065;-69
2022/05/10 10:32:48;;;;;;;13.05;5.57;;;;;;;;;;4406447;32;20054;-69
2022/05/10 10:35:46;;;;;;;11.77;6.07;;;;;;;;;;4406836;32;20034;-69
2022/05/10 10:38:20;;;;;;;12.93;6.37;;;;;;;;;;4375856;32;20435;-69
2022/05/10 10:40:54;;;;;;;10.25;5.55;;;;;;;;;;4407360;32;20050;-69
2022/05/10 10:43:28;;;;;;;7.53;5.18;;;;;;;;;;4394914;32;20473;-69
2022/05/10 10:46:12;;;;;;;11.77;6.20;;;;;;;;;;4423614;32;20037;-69
2022/05/10 10:48:47;;;;;;;8.93;5.50;;;;;;;;;;4422225;32;20077;-67
2022/05/10 10:51:15;;;;;;;8.43;5.03;;;;;;;;;;4423219;32;20038;-69
2022/05/10 10:53:41;;;;;;;11.55;5.60;;;;;;;;;;4410411;32;20084;-68
2022/05/10 10:56:33;;;;;;;10.27;5.68;;;;;;;;;;4407661;32;20583;-68
2022/05/10 10:59:23;;;;;;;13.35;5.80;;;;;;;;;;4391510;32;20027;-68
2022/05/10 11:01:56;;;;;;;17.23;5.93;;;;;;;;;;4410030;32;20030;-68
2022/05/10 11:04:39;;;;;;;9.50;4.80;;;;;;;;;;4420718;32;20026;-69
2022/05/10 11:07:12;;;;;;;18.45;5.97;;;;;;;;;;4406001;32;20022;-70
2022/05/10 11:09:42;;;;;;;13.65;6.00;;;;;;;;;;4406838;32;20026;-69
2022/05/10 11:12:31;;;;;;;11.15;5.95;;;;;;;;;;4406582;32;20026;-69
2022/05/10 11:15:05;;;;;;;13.85;6.40;;;;;;;;;;4407448;32;20115;-69
2022/05/10 11:17:37;;;;;;;10.98;5.87;;;;;;;;;;4407736;32;20022;-67
2022/05/10 11:20:03;;;;;;;14.32;6.57;;;;;;;;;;4407841;32;20030;-69
2022/05/10 11:22:30;;;;;;;12.50;6.60;;;;;;;;;;4406036;32;20076;-69
2022/05/10 11:25:19;;;;;;;13.70;6.55;;;;;;;;;;4405935;32;20171;-69
2022/05/10 11:27:44;;;;;;;17.77;6.87;;;;;;;;;;4408117;32;20023;-69
2022/05/10 11:30:15;;;;;;;16.52;6.22;;;;;;;;;;4406568;32;20053;-69
2022/05/10 11:33:00;;;;;;;14.90;6.28;;;;;;;;;;4405941;32;20367;-70
2022/05/10 11:35:46;;;;;;;16.30;6.47;;;;;;;;;;4391284;32;20102;-68
2022/05/10 11:38:14;;;;;;;17.60;7.32;;;;;;;;;;4382111;32;20430;-70
2022/05/10 11:40:45;;;;;;;13.75;7.05;;;;;;;;;;4421476;32;20483;-69
2022/05/10 11:43:27;;;;;;;11.75;6.80;;;;;;;;;;4408395;32;20091;-69
2022/05/10 11:45:52;;;;;;;17.90;5.35;;;;;;;;;;4422788;32;20149;-68
2022/05/10 11:48:37;;;;;;;7.20;4.68;;;;;;;;;;4413118;32;20030;-68
2022/05/10 11:54:01;;;;;;;16.17;4.60;;;;;;;;;;4407329;32;20086;-69
2022/05/10 11:56:31;;;;;;;21.25;5.90;;;;;;;;;;4391617;32;20068;-68
2022/05/10 11:58:57;;;;;;;9.88;5.15;;;;;;;;;;4407726;32;20394;-68
2022/05/10 12:01:41;;;;;;;8.73;4.72;;;;;;;;;;4408047;32;20056;-68
2022/05/10 12:04:06;;;;;;;8.80;4.75;;;;;;;;;;4407546;32;20030;-69
2022/05/10 12:06:33;;;;;;;10.60;5.55;;;;;;;;;;4419195;32;20093;-68
2022/05/10 12:08:59;;;;;;;11.82;5.28;;;;;;;;;;4408698;32;20396;-70
2022/05/10 12:11:27;;;;;;;11.43;4.87;;;;;;;;;;4407523;32;20340;-69
2022/05/10 12:22:45;;;;;;;8.32;3.80;;;;;;;;;;4379577;32;20038;-69
2022/05/10 12:25:30;;;;;;;20.45;5.45;;;;;;;;;;4393408;32;20068;-70
2022/05/10 12:28:00;;;;;;;14.98;3.83;;;;;;;;;;4406954;32;20083;-69
2022/05/10 12:30:30;;;;;;;9.38;3.25;;;;;;;;;;4391053;32;20053;-70
2022/05/10 12:32:57;;;;;;;9.77;2.87;;;;;;;;;;4406965;32;20052;-70
2022/05/10 12:35:32;;;;;;;8.52;3.00;;;;;;;;;;4405376;32;20026;-70
2022/05/10 12:37:59;;;;;;;9.02;3.10;;;;;;;;;;4404993;32;20066;-69
2022/05/10 12:40:34;;;;;;;14.52;3.70;;;;;;;;;;4405030;32;20039;-69
2022/05/10 12:43:18;;;;;;;12.88;3.92;;;;;;;;;;4405326;32;20018;-69
2022/05/10 12:46:17;;;;;;;13.38;3.20;;;;;;;;;;4406582;32;20025;-68
2022/05/10 12:48:43;;;;;;;9.73;3.15;;;;;;;;;;4392559;32;20112;-69
2022/05/10 12:51:27;;;;;;;8.82;3.22;;;;;;;;;;4418017;32;20030;-69
2022/05/10 12:53:57;;;;;;;10.32;3.37;;;;;;;;;;4399732;32;20031;-67
2022/05/10 12:56:46;;;;;;;9.75;2.97;;;;;;;;;;4406067;32;20091;-67
2022/05/10 12:59:15;;;;;;;15.15;3.50;;;;;;;;;;4406546;32;20064;-68
2022/05/10 13:01:40;;;;;;;19.50;3.87;;;;;;;;;;4390703;32;20026;-68
2022/05/10 13:04:15;;;;;;;5.05;3.22;;;;;;;;;;4406244;32;20073;-68
2022/05/10 13:06:40;;;;;;;10.13;3.00;;;;;;;;;;4406625;32;20069;-67
2022/05/10 13:09:08;;;;;;;7.75;2.58;;;;;;;;;;4406421;32;20046;-69
2022/05/10 13:11:57;;;;;;;10.02;3.15;;;;;;;;;;4405637;32;20375;-69
2022/05/10 13:14:23;;;;;;;5.15;2.97;;;;;;;;;;4387555;32;20110;-69
2022/05/10 13:16:53;;;;;;;8.55;2.85;;;;;;;;;;4393333;32;20049;-69
2022/05/10 13:19:20;;;;;;;13.15;3.30;;;;;;;;;;4404536;32;20034;-69
2022/05/10 13:21:45;;;;;;;8.88;2.72;;;;;;;;;;4404778;32;20030;-69
2022/05/10 13:24:12;;;;;;;13.05;2.40;;;;;;;;;;4406187;32;20086;-69
2022/05/10 13:26:54;;;;;;;8.25;2.40;;;;;;;;;;4406100;32;20065;-69
2022/05/10 13:29:19;;;;;;;4.37;2.12;;;;;;;;;;4414003;32;20053;-69
2022/05/10 13:31:45;;;;;;;9.35;2.33;;;;;;;;;;4421025;32;20030;-69
2022/05/10 13:34:13;;;;;;;4.60;1.92;;;;;;;;;;4421160;32;20389;-69
2022/05/10 13:36:41;;;;;;;12.43;2.35;;;;;;;;;;4420043;32;20048;-70
2022/05/10 13:39:06;;;;;;;7.30;2.17;;;;;;;;;;4418974;32;20049;-70
2022/05/10 13:41:33;;;;;;;6.85;1.92;;;;;;;;;;4406453;32;20095;-69
2022/05/10 13:44:14;;;;;;;3.33;1.77;;;;;;;;;;4420964;32;20042;-69
2022/05/10 13:46:47;;;;;;;10.50;2.22;;;;;;;;;;4421615;32;20025;-69
2022/05/10 13:49:15;;;;;;;8.10;1.95;;;;;;;;;;4421147;32;20442;-69
2022/05/10 13:51:47;;;;;;;9.88;2.25;;;;;;;;;;4407850;32;20035;-69
2022/05/10 13:54:34;;;;;;;5.35;2.05;;;;;;;;;;4404502;32;20035;-69
2022/05/10 13:57:14;;;;;;;6.18;1.90;;;;;;;;;;4404945;32;20030;-70
2022/05/10 13:59:40;;;;;;;5.22;1.80;;;;;;;;;;4387660;32;20345;-69
2022/05/10 14:02:07;;;;;;;7.53;1.65;;;;;;;;;;4390240;32;20501;-70
2022/05/10 14:04:32;;;;;;;7.28;2.20;;;;;;;;;;4403303;32;20087;-69
2022/05/10 14:07:00;;;;;;;7.12;1.58;;;;;;;;;;4404464;32;20322;-68
2022/05/10 14:09:30;;;;;;;10.25;1.80;;;;;;;;;;4402351;32;20368;-69
2022/05/10 14:11:57;;;;;;;8.98;2.80;;;;;;;;;;4402112;32;20023;-68
2022/05/10 14:14:31;;;;;;;7.93;1.77;;;;;;;;;;4403504;32;20026;-69
2022/05/10 14:16:57;;;;;;;6.32;1.70;;;;;;;;;;4390373;32;20077;-69
2022/05/10 14:19:49;;;;;;;3.67;2.28;;;;;;;;;;4402615;32;20317;-70
2022/05/10 14:22:19;;;;;;;4.68;1.95;;;;;;;;;;4385723;32;20076;-70
2022/05/10 14:24:45;;;;;;;6.47;2.40;;;;;;;;;;4404094;32;20102;-70
2022/05/10 14:27:15;;;;;;;7.80;2.20;;;;;;;;;;4405645;32;20409;-69
2022/05/10 14:29:46;;;;;;;8.88;2.20;;;;;;;;;;4415914;32;20046;-69
2022/05/10 14:32:13;;;;;;;6.30;2.80;;;;;;;;;;4407380;32;20067;-69
2022/05/10 14:34:41;;;;;;;3.90;2.42;;;;;;;;;;4405477;32;20030;-68
2022/05/10 14:37:06;;;;;;;5.35;1.90;;;;;;;;;;4419620;32;20057;-69
2022/05/10 14:39:32;;;;;;;5.18;1.98;;;;;;;;;;4419698;32;20064;-69
2022/05/10 14:41:57;;;;;;;6.90;2.00;;;;;;;;;;4421254;32;20374;-69
2022/05/10 14:44:23;;;;;;;4.68;1.98;;;;;;;;;;4421520;32;20140;-68
2022/05/10 14:46:56;;;;;;;5.87;2.40;;;;;;;;;;4422439;32;20052;-69
2022/05/10 14:49:56;;;;;;;5.65;2.15;;;;;;;;;;4423230;32;20397;-68
2022/05/10 14:52:23;;;;;;;8.07;2.45;;;;;;;;;;4331812;33;20057;-69
2022/05/10 14:54:49;;;;;;;7.70;2.35;;;;;;;;;;4405378;32;20026;-69
2022/05/10 14:57:19;;;;;;;6.68;2.40;;;;;;;;;;4408522;32;20044;-69
2022/05/10 14:59:51;;;;;;;5.43;3.00;;;;;;;;;;4396645;32;20477;-69
2022/05/10 15:02:33;;;;;;;9.60;2.42;;;;;;;;;;4407064;32;20062;-68
2022/05/10 15:04:59;;;;;;;5.68;2.28;;;;;;;;;;4406162;32;20432;-69
2022/05/10 15:07:25;;;;;;;5.55;2.50;;;;;;;;;;4407027;32;20056;-69
2022/05/10 15:09:51;;;;;;;7.47;3.10;;;;;;;;;;4407422;32;20106;-69